sensor_id;sensor_type;location;lat;lon;timestamp;P1;durP1;ratioP1;P2;durP2;ratioP2
30533;SDS011;17318;52.390;9.754;2022-11-20T00:01:13;24.98;;;10.88;;
30533;SDS011;17318;52.390;9.754;2022-11-20T00:03:39;21.58;;;9.50;;
30533;SDS011;17318;52.390;9.754;2022-11-20T00:06:06;19.23;;;9.90;;
30533;SDS011;17318;52.390;9.754;2022-11-20T00:08:34;21.15;;;9.98;;
30533;SDS011;17318;52.390;9.754;2022-11-20T00:11:04;18.40;;;9.38;;
30533;SDS011;17318;52.390;9.754;2022-11-20T00:13:31;22.20;;;10.57;;
30533;SDS011;17318;52.390;9.754;2022-11-20T00:16:01;20.77;;;10.10;;
30533;SDS011;17318;52.390;9.754;2022-11-20T00:18:28;19.25;;;9.63;;
30533;SDS011;17318;52.390;9.754;2022-11-20T00:20:59;23.35;;;10.15;;
30533;SDS011;17318;52.390;9.754;2022-11-20T00:23:29;23.38;;;9.73;;
30533;SDS011;17318;52.390;9.754;2022-11-20T00:25:55;19.52;;;8.60;;
30533;SDS011;17318;52.390;9.754;2022-11-20T00:28:21;18.75;;;8.63;;
30533;SDS011;17318;52.390;9.754;2022-11-20T00:30:47;20.63;;;8.60;;
30533;SDS011;17318;52.390;9.754;2022-11-20T00:33:13;18.10;;;8.23;;
30533;SDS011;17318;52.390;9.754;2022-11-20T00:35:38;21.40;;;9.32;;
30533;SDS011;17318;52.390;9.754;2022-11-20T00:38:04;18.23;;;8.52;;
30533;SDS011;17318;52.390;9.754;2022-11-20T00:40:30;18.58;;;8.43;;
30533;SDS011;17318;52.390;9.754;2022-11-20T00:42:55;18.05;;;8.98;;
30533;SDS011;17318;52.390;9.754;2022-11-20T00:45:21;17.42;;;8.52;;
30533;SDS011;17318;52.390;9.754;2022-11-20T00:47:47;17.52;;;8.68;;
30533;SDS011;17318;52.390;9.754;2022-11-20T00:50:12;19.92;;;9.15;;
30533;SDS011;17318;52.390;9.754;2022-11-20T00:52:38;15.55;;;8.50;;
30533;SDS011;17318;52.390;9.754;2022-11-20T00:55:04;17.17;;;8.43;;
30533;SDS011;17318;52.390;9.754;2022-11-20T00:57:30;18.30;;;8.25;;
30533;SDS011;17318;52.390;9.754;2022-11-20T00:59:56;18.25;;;9.13;;
30533;SDS011;17318;52.390;9.754;2022-11-20T01:02:22;17.95;;;8.50;;
30533;SDS011;17318;52.390;9.754;2022-11-20T01:04:47;18.50;;;8.57;;
30533;SDS011;17318;52.390;9.754;2022-11-20T01:07:13;16.40;;;8.38;;
30533;SDS011;17318;52.390;9.754;2022-11-20T01:09:39;20.92;;;8.90;;
30533;SDS011;17318;52.390;9.754;2022-11-20T01:12:05;19.70;;;9.13;;
30533;SDS011;17318;52.390;9.754;2022-11-20T01:14:31;18.83;;;8.88;;
30533;SDS011;17318;52.390;9.754;2022-11-20T01:16:56;15.68;;;8.45;;
30533;SDS011;17318;52.390;9.754;2022-11-20T01:19:22;21.27;;;9.25;;
30533;SDS011;17318;52.390;9.754;2022-11-20T01:21:50;18.70;;;8.90;;
30533;SDS011;17318;52.390;9.754;2022-11-20T01:24:17;17.00;;;8.05;;
30533;SDS011;17318;52.390;9.754;2022-11-20T01:26:44;15.70;;;8.77;;
30533;SDS011;17318;52.390;9.754;2022-11-20T01:29:22;18.70;;;9.23;;
30533;SDS011;17318;52.390;9.754;2022-11-20T01:31:49;16.55;;;8.63;;
30533;SDS011;17318;52.390;9.754;2022-11-20T01:34:16;19.30;;;8.57;;
30533;SDS011;17318;52.390;9.754;2022-11-20T01:36:43;18.95;;;8.63;;
30533;SDS011;17318;52.390;9.754;2022-11-20T01:39:11;20.50;;;9.73;;
30533;SDS011;17318;52.390;9.754;2022-11-20T01:41:37;16.40;;;8.80;;
30533;SDS011;17318;52.390;9.754;2022-11-20T01:44:22;17.83;;;8.80;;
30533;SDS011;17318;52.390;9.754;2022-11-20T01:47:28;17.88;;;8.43;;
30533;SDS011;17318;52.390;9.754;2022-11-20T01:52:41;19.92;;;9.38;;
30533;SDS011;17318;52.390;9.754;2022-11-20T01:55:14;17.27;;;8.65;;
30533;SDS011;17318;52.390;9.754;2022-11-20T01:57:44;18.73;;;8.55;;
30533;SDS011;17318;52.390;9.754;2022-11-20T02:00:14;16.83;;;8.00;;
30533;SDS011;17318;52.390;9.754;2022-11-20T02:02:42;18.70;;;8.23;;
30533;SDS011;17318;52.390;9.754;2022-11-20T02:08:03;17.38;;;8.60;;
30533;SDS011;17318;52.390;9.754;2022-11-20T02:12:57;14.85;;;8.23;;
30533;SDS011;17318;52.390;9.754;2022-11-20T02:15:42;16.05;;;7.93;;
30533;SDS011;17318;52.390;9.754;2022-11-20T02:18:08;15.40;;;8.32;;
30533;SDS011;17318;52.390;9.754;2022-11-20T02:20:36;16.98;;;8.50;;
30533;SDS011;17318;52.390;9.754;2022-11-20T02:23:13;21.05;;;8.57;;
30533;SDS011;17318;52.390;9.754;2022-11-20T02:25:47;17.33;;;8.07;;
30533;SDS011;17318;52.390;9.754;2022-11-20T02:28:14;18.63;;;9.13;;
30533;SDS011;17318;52.390;9.754;2022-11-20T02:30:40;15.77;;;8.45;;
30533;SDS011;17318;52.390;9.754;2022-11-20T02:33:06;16.27;;;8.68;;
30533;SDS011;17318;52.390;9.754;2022-11-20T02:38:00;15.90;;;8.07;;
30533;SDS011;17318;52.390;9.754;2022-11-20T02:40:27;22.10;;;10.40;;
30533;SDS011;17318;52.390;9.754;2022-11-20T02:42:56;20.83;;;10.10;;
30533;SDS011;17318;52.390;9.754;2022-11-20T02:45:22;17.20;;;7.78;;
30533;SDS011;17318;52.390;9.754;2022-11-20T02:47:49;15.38;;;7.78;;
30533;SDS011;17318;52.390;9.754;2022-11-20T02:50:15;16.13;;;7.50;;
30533;SDS011;17318;52.390;9.754;2022-11-20T02:52:41;15.70;;;7.80;;
30533;SDS011;17318;52.390;9.754;2022-11-20T02:55:07;18.33;;;8.63;;
30533;SDS011;17318;52.390;9.754;2022-11-20T02:57:33;17.52;;;8.82;;
30533;SDS011;17318;52.390;9.754;2022-11-20T02:59:59;21.42;;;10.30;;
30533;SDS011;17318;52.390;9.754;2022-11-20T03:02:25;22.65;;;10.38;;
30533;SDS011;17318;52.390;9.754;2022-11-20T03:04:50;24.13;;;10.98;;
30533;SDS011;17318;52.390;9.754;2022-11-20T03:07:16;21.38;;;10.60;;
30533;SDS011;17318;52.390;9.754;2022-11-20T03:09:42;24.50;;;9.95;;
30533;SDS011;17318;52.390;9.754;2022-11-20T03:12:07;21.92;;;10.48;;
30533;SDS011;17318;52.390;9.754;2022-11-20T03:14:34;21.05;;;10.43;;
30533;SDS011;17318;52.390;9.754;2022-11-20T03:16:59;22.17;;;10.30;;
30533;SDS011;17318;52.390;9.754;2022-11-20T03:19:25;18.80;;;9.50;;
30533;SDS011;17318;52.390;9.754;2022-11-20T03:21:51;19.10;;;8.98;;
30533;SDS011;17318;52.390;9.754;2022-11-20T03:24:16;16.85;;;8.13;;
30533;SDS011;17318;52.390;9.754;2022-11-20T03:26:42;17.63;;;8.73;;
30533;SDS011;17318;52.390;9.754;2022-11-20T03:29:08;19.58;;;8.05;;
30533;SDS011;17318;52.390;9.754;2022-11-20T03:31:35;19.27;;;8.90;;
30533;SDS011;17318;52.390;9.754;2022-11-20T03:34:05;21.92;;;8.80;;
30533;SDS011;17318;52.390;9.754;2022-11-20T03:36:32;22.52;;;9.00;;
30533;SDS011;17318;52.390;9.754;2022-11-20T03:38:58;15.90;;;8.93;;
30533;SDS011;17318;52.390;9.754;2022-11-20T03:41:25;21.50;;;10.18;;
30533;SDS011;17318;52.390;9.754;2022-11-20T03:43:53;18.20;;;8.52;;
30533;SDS011;17318;52.390;9.754;2022-11-20T03:46:20;16.98;;;8.95;;
30533;SDS011;17318;52.390;9.754;2022-11-20T03:48:47;20.02;;;8.45;;
30533;SDS011;17318;52.390;9.754;2022-11-20T03:51:13;13.82;;;8.52;;
30533;SDS011;17318;52.390;9.754;2022-11-20T03:53:40;19.02;;;8.80;;
30533;SDS011;17318;52.390;9.754;2022-11-20T03:56:08;18.55;;;8.90;;
30533;SDS011;17318;52.390;9.754;2022-11-20T03:58:35;16.70;;;8.48;;
30533;SDS011;17318;52.390;9.754;2022-11-20T04:01:07;16.52;;;8.23;;
30533;SDS011;17318;52.390;9.754;2022-11-20T04:03:36;16.73;;;7.78;;
30533;SDS011;17318;52.390;9.754;2022-11-20T04:06:08;14.20;;;8.13;;
30533;SDS011;17318;52.390;9.754;2022-11-20T04:08:35;15.15;;;7.70;;
30533;SDS011;17318;52.390;9.754;2022-11-20T04:13:38;16.70;;;7.88;;
30533;SDS011;17318;52.390;9.754;2022-11-20T04:16:05;14.43;;;7.93;;
30533;SDS011;17318;52.390;9.754;2022-11-20T04:18:31;21.15;;;9.43;;
30533;SDS011;17318;52.390;9.754;2022-11-20T04:20:58;16.52;;;8.65;;
30533;SDS011;17318;52.390;9.754;2022-11-20T04:23:24;20.38;;;8.65;;
30533;SDS011;17318;52.390;9.754;2022-11-20T04:25:51;17.40;;;8.25;;
30533;SDS011;17318;52.390;9.754;2022-11-20T04:28:17;16.85;;;7.90;;
30533;SDS011;17318;52.390;9.754;2022-11-20T04:30:42;16.02;;;8.13;;
30533;SDS011;17318;52.390;9.754;2022-11-20T04:33:08;15.10;;;7.95;;
30533;SDS011;17318;52.390;9.754;2022-11-20T04:35:34;14.82;;;7.78;;
30533;SDS011;17318;52.390;9.754;2022-11-20T04:38:00;16.67;;;7.63;;
30533;SDS011;17318;52.390;9.754;2022-11-20T04:40:30;21.52;;;9.13;;
30533;SDS011;17318;52.390;9.754;2022-11-20T04:42:55;20.45;;;8.18;;
30533;SDS011;17318;52.390;9.754;2022-11-20T04:45:24;16.23;;;7.75;;
30533;SDS011;17318;52.390;9.754;2022-11-20T04:47:50;16.23;;;7.43;;
30533;SDS011;17318;52.390;9.754;2022-11-20T04:50:15;16.50;;;8.00;;
30533;SDS011;17318;52.390;9.754;2022-11-20T04:52:41;17.02;;;8.07;;
30533;SDS011;17318;52.390;9.754;2022-11-20T04:55:07;16.65;;;8.02;;
30533;SDS011;17318;52.390;9.754;2022-11-20T04:57:33;17.00;;;8.20;;
30533;SDS011;17318;52.390;9.754;2022-11-20T04:59:58;14.50;;;7.38;;
30533;SDS011;17318;52.390;9.754;2022-11-20T05:02:24;17.05;;;8.45;;
30533;SDS011;17318;52.390;9.754;2022-11-20T05:04:49;16.17;;;7.68;;
30533;SDS011;17318;52.390;9.754;2022-11-20T05:07:15;18.23;;;7.57;;
30533;SDS011;17318;52.390;9.754;2022-11-20T05:09:41;16.45;;;8.38;;
30533;SDS011;17318;52.390;9.754;2022-11-20T05:12:07;15.95;;;7.47;;
30533;SDS011;17318;52.390;9.754;2022-11-20T05:14:33;21.05;;;8.10;;
30533;SDS011;17318;52.390;9.754;2022-11-20T05:16:59;13.88;;;7.57;;
30533;SDS011;17318;52.390;9.754;2022-11-20T05:19:24;18.17;;;8.00;;
30533;SDS011;17318;52.390;9.754;2022-11-20T05:21:50;16.92;;;8.25;;
30533;SDS011;17318;52.390;9.754;2022-11-20T05:24:16;18.90;;;9.10;;
30533;SDS011;17318;52.390;9.754;2022-11-20T05:26:42;14.18;;;7.55;;
30533;SDS011;17318;52.390;9.754;2022-11-20T05:29:09;14.05;;;7.68;;
30533;SDS011;17318;52.390;9.754;2022-11-20T05:31:38;12.82;;;6.78;;
30533;SDS011;17318;52.390;9.754;2022-11-20T05:34:05;14.65;;;6.95;;
30533;SDS011;17318;52.390;9.754;2022-11-20T05:36:31;15.10;;;7.88;;
30533;SDS011;17318;52.390;9.754;2022-11-20T05:38:57;15.23;;;7.10;;
30533;SDS011;17318;52.390;9.754;2022-11-20T05:41:23;14.32;;;7.63;;
30533;SDS011;17318;52.390;9.754;2022-11-20T05:43:50;16.55;;;8.32;;
30533;SDS011;17318;52.390;9.754;2022-11-20T05:46:17;14.82;;;7.40;;
30533;SDS011;17318;52.390;9.754;2022-11-20T05:48:44;14.70;;;7.65;;
30533;SDS011;17318;52.390;9.754;2022-11-20T05:51:11;14.30;;;7.82;;
30533;SDS011;17318;52.390;9.754;2022-11-20T05:53:40;13.63;;;7.55;;
30533;SDS011;17318;52.390;9.754;2022-11-20T05:56:06;13.10;;;7.03;;
30533;SDS011;17318;52.390;9.754;2022-11-20T05:58:35;15.32;;;8.13;;
30533;SDS011;17318;52.390;9.754;2022-11-20T06:01:09;13.82;;;7.10;;
30533;SDS011;17318;52.390;9.754;2022-11-20T06:03:35;15.43;;;7.65;;
30533;SDS011;17318;52.390;9.754;2022-11-20T06:06:01;14.38;;;7.50;;
30533;SDS011;17318;52.390;9.754;2022-11-20T06:08:28;15.30;;;6.93;;
30533;SDS011;17318;52.390;9.754;2022-11-20T06:10:54;14.52;;;7.45;;
30533;SDS011;17318;52.390;9.754;2022-11-20T06:13:20;12.55;;;6.65;;
30533;SDS011;17318;52.390;9.754;2022-11-20T06:15:49;11.45;;;6.90;;
30533;SDS011;17318;52.390;9.754;2022-11-20T06:18:16;13.63;;;7.30;;
30533;SDS011;17318;52.390;9.754;2022-11-20T06:20:41;17.27;;;7.82;;
30533;SDS011;17318;52.390;9.754;2022-11-20T06:23:07;15.15;;;6.80;;
30533;SDS011;17318;52.390;9.754;2022-11-20T06:25:32;10.98;;;6.13;;
30533;SDS011;17318;52.390;9.754;2022-11-20T06:28:01;13.45;;;7.28;;
30533;SDS011;17318;52.390;9.754;2022-11-20T06:30:27;15.57;;;7.65;;
30533;SDS011;17318;52.390;9.754;2022-11-20T06:32:53;11.90;;;6.13;;
30533;SDS011;17318;52.390;9.754;2022-11-20T06:35:19;12.05;;;7.03;;
30533;SDS011;17318;52.390;9.754;2022-11-20T06:37:44;11.65;;;6.35;;
30533;SDS011;17318;52.390;9.754;2022-11-20T06:40:10;13.05;;;6.25;;
30533;SDS011;17318;52.390;9.754;2022-11-20T06:42:36;14.57;;;7.68;;
30533;SDS011;17318;52.390;9.754;2022-11-20T06:45:02;13.77;;;6.93;;
30533;SDS011;17318;52.390;9.754;2022-11-20T06:47:28;14.20;;;7.63;;
30533;SDS011;17318;52.390;9.754;2022-11-20T06:49:53;14.93;;;6.88;;
30533;SDS011;17318;52.390;9.754;2022-11-20T06:52:19;13.77;;;7.13;;
30533;SDS011;17318;52.390;9.754;2022-11-20T06:54:45;14.65;;;6.63;;
30533;SDS011;17318;52.390;9.754;2022-11-20T06:57:11;14.95;;;7.22;;
30533;SDS011;17318;52.390;9.754;2022-11-20T06:59:37;14.30;;;7.38;;
30533;SDS011;17318;52.390;9.754;2022-11-20T07:02:02;12.70;;;6.72;;
30533;SDS011;17318;52.390;9.754;2022-11-20T07:04:28;13.45;;;6.72;;
30533;SDS011;17318;52.390;9.754;2022-11-20T07:06:54;12.50;;;6.38;;
30533;SDS011;17318;52.390;9.754;2022-11-20T07:09:19;10.75;;;6.10;;
30533;SDS011;17318;52.390;9.754;2022-11-20T07:11:45;10.45;;;5.85;;
30533;SDS011;17318;52.390;9.754;2022-11-20T07:14:10;11.25;;;5.88;;
30533;SDS011;17318;52.390;9.754;2022-11-20T07:16:36;11.60;;;6.32;;
30533;SDS011;17318;52.390;9.754;2022-11-20T07:19:02;11.80;;;6.80;;
30533;SDS011;17318;52.390;9.754;2022-11-20T07:21:27;12.10;;;7.00;;
30533;SDS011;17318;52.390;9.754;2022-11-20T07:23:53;12.82;;;6.38;;
30533;SDS011;17318;52.390;9.754;2022-11-20T07:26:18;16.00;;;7.53;;
30533;SDS011;17318;52.390;9.754;2022-11-20T07:28:44;16.13;;;7.85;;
30533;SDS011;17318;52.390;9.754;2022-11-20T07:31:10;9.95;;;6.28;;
30533;SDS011;17318;52.390;9.754;2022-11-20T07:33:38;13.88;;;6.60;;
30533;SDS011;17318;52.390;9.754;2022-11-20T07:36:04;14.63;;;7.75;;
30533;SDS011;17318;52.390;9.754;2022-11-20T07:38:30;14.45;;;7.25;;
30533;SDS011;17318;52.390;9.754;2022-11-20T07:40:59;11.82;;;6.45;;
30533;SDS011;17318;52.390;9.754;2022-11-20T07:43:26;12.57;;;7.25;;
30533;SDS011;17318;52.390;9.754;2022-11-20T07:45:54;15.73;;;5.88;;
30533;SDS011;17318;52.390;9.754;2022-11-20T07:48:21;17.02;;;6.65;;
30533;SDS011;17318;52.390;9.754;2022-11-20T07:50:47;12.35;;;5.53;;
30533;SDS011;17318;52.390;9.754;2022-11-20T07:53:12;12.63;;;5.60;;
30533;SDS011;17318;52.390;9.754;2022-11-20T07:55:39;11.32;;;5.45;;
30533;SDS011;17318;52.390;9.754;2022-11-20T07:58:05;11.88;;;6.10;;
30533;SDS011;17318;52.390;9.754;2022-11-20T08:00:31;10.93;;;5.70;;
30533;SDS011;17318;52.390;9.754;2022-11-20T08:02:56;11.55;;;6.13;;
30533;SDS011;17318;52.390;9.754;2022-11-20T08:05:22;13.73;;;5.60;;
30533;SDS011;17318;52.390;9.754;2022-11-20T08:07:48;9.80;;;5.72;;
30533;SDS011;17318;52.390;9.754;2022-11-20T08:10:14;11.10;;;6.10;;
30533;SDS011;17318;52.390;9.754;2022-11-20T08:12:59;11.55;;;5.97;;
30533;SDS011;17318;52.390;9.754;2022-11-20T08:15:47;11.95;;;6.25;;
30533;SDS011;17318;52.390;9.754;2022-11-20T08:18:15;12.50;;;6.35;;
30533;SDS011;17318;52.390;9.754;2022-11-20T08:20:42;11.23;;;5.57;;
30533;SDS011;17318;52.390;9.754;2022-11-20T08:23:07;22.35;;;11.07;;
30533;SDS011;17318;52.390;9.754;2022-11-20T08:25:34;13.57;;;7.25;;
30533;SDS011;17318;52.390;9.754;2022-11-20T08:28:01;11.27;;;5.97;;
30533;SDS011;17318;52.390;9.754;2022-11-20T08:30:29;12.98;;;6.35;;
30533;SDS011;17318;52.390;9.754;2022-11-20T08:32:59;12.27;;;6.50;;
30533;SDS011;17318;52.390;9.754;2022-11-20T08:35:27;10.40;;;6.22;;
30533;SDS011;17318;52.390;9.754;2022-11-20T08:37:52;16.73;;;6.38;;
30533;SDS011;17318;52.390;9.754;2022-11-20T08:40:18;11.98;;;6.22;;
30533;SDS011;17318;52.390;9.754;2022-11-20T08:42:48;12.35;;;6.93;;
30533;SDS011;17318;52.390;9.754;2022-11-20T08:45:14;13.00;;;6.28;;
30533;SDS011;17318;52.390;9.754;2022-11-20T08:47:41;13.07;;;6.85;;
30533;SDS011;17318;52.390;9.754;2022-11-20T08:50:08;12.13;;;6.65;;
30533;SDS011;17318;52.390;9.754;2022-11-20T08:52:34;18.27;;;8.03;;
30533;SDS011;17318;52.390;9.754;2022-11-20T08:55:00;18.83;;;8.48;;
30533;SDS011;17318;52.390;9.754;2022-11-20T08:57:26;12.75;;;6.90;;
30533;SDS011;17318;52.390;9.754;2022-11-20T08:59:51;15.43;;;7.05;;
30533;SDS011;17318;52.390;9.754;2022-11-20T09:02:17;12.98;;;6.47;;
30533;SDS011;17318;52.390;9.754;2022-11-20T09:04:43;11.88;;;6.50;;
30533;SDS011;17318;52.390;9.754;2022-11-20T09:07:08;15.60;;;7.60;;
30533;SDS011;17318;52.390;9.754;2022-11-20T09:09:34;17.48;;;7.57;;
30533;SDS011;17318;52.390;9.754;2022-11-20T09:12:00;13.75;;;7.82;;
30533;SDS011;17318;52.390;9.754;2022-11-20T09:14:25;13.55;;;6.55;;
30533;SDS011;17318;52.390;9.754;2022-11-20T09:16:54;18.55;;;7.00;;
30533;SDS011;17318;52.390;9.754;2022-11-20T09:19:20;12.95;;;7.38;;
30533;SDS011;17318;52.390;9.754;2022-11-20T09:21:46;14.27;;;7.53;;
30533;SDS011;17318;52.390;9.754;2022-11-20T09:24:11;15.02;;;7.10;;
30533;SDS011;17318;52.390;9.754;2022-11-20T09:26:37;14.15;;;7.07;;
30533;SDS011;17318;52.390;9.754;2022-11-20T09:29:03;14.68;;;7.22;;
30533;SDS011;17318;52.390;9.754;2022-11-20T09:31:28;15.50;;;7.05;;
30533;SDS011;17318;52.390;9.754;2022-11-20T09:33:54;15.30;;;7.53;;
30533;SDS011;17318;52.390;9.754;2022-11-20T09:36:20;11.73;;;6.68;;
30533;SDS011;17318;52.390;9.754;2022-11-20T09:38:46;14.95;;;8.20;;
30533;SDS011;17318;52.390;9.754;2022-11-20T09:44:07;13.20;;;6.95;;
30533;SDS011;17318;52.390;9.754;2022-11-20T09:49:23;15.77;;;7.47;;
30533;SDS011;17318;52.390;9.754;2022-11-20T09:54:40;14.45;;;6.72;;
30533;SDS011;17318;52.390;9.754;2022-11-20T09:57:13;12.73;;;6.50;;
30533;SDS011;17318;52.390;9.754;2022-11-20T09:59:42;16.33;;;7.82;;
30533;SDS011;17318;52.390;9.754;2022-11-20T10:04:59;13.68;;;7.10;;
30533;SDS011;17318;52.390;9.754;2022-11-20T10:07:33;15.75;;;6.30;;
30533;SDS011;17318;52.390;9.754;2022-11-20T10:10:15;14.52;;;6.43;;
30533;SDS011;17318;52.390;9.754;2022-11-20T10:21:08;15.27;;;6.18;;
30533;SDS011;17318;52.390;9.754;2022-11-20T10:23:44;19.42;;;6.50;;
30533;SDS011;17318;52.390;9.754;2022-11-20T10:29:14;9.00;;;5.65;;
30533;SDS011;17318;52.390;9.754;2022-11-20T10:31:42;10.68;;;5.63;;
30533;SDS011;17318;52.390;9.754;2022-11-20T10:34:26;10.35;;;5.60;;
30533;SDS011;17318;52.390;9.754;2022-11-20T10:37:11;10.77;;;5.70;;
30533;SDS011;17318;52.390;9.754;2022-11-20T10:42:49;10.32;;;5.32;;
30533;SDS011;17318;52.390;9.754;2022-11-20T10:48:10;8.23;;;4.45;;
30533;SDS011;17318;52.390;9.754;2022-11-20T10:50:40;9.07;;;4.50;;
30533;SDS011;17318;52.390;9.754;2022-11-20T10:56:23;8.88;;;5.20;;
30533;SDS011;17318;52.390;9.754;2022-11-20T11:01:40;9.77;;;5.35;;
30533;SDS011;17318;52.390;9.754;2022-11-20T11:04:13;9.90;;;5.30;;
30533;SDS011;17318;52.390;9.754;2022-11-20T11:06:48;9.85;;;5.25;;
30533;SDS011;17318;52.390;9.754;2022-11-20T11:09:19;11.73;;;4.78;;
30533;SDS011;17318;52.390;9.754;2022-11-20T11:14:18;10.10;;;5.43;;
30533;SDS011;17318;52.390;9.754;2022-11-20T11:16:54;10.30;;;5.05;;
30533;SDS011;17318;52.390;9.754;2022-11-20T11:19:21;12.00;;;4.78;;
30533;SDS011;17318;52.390;9.754;2022-11-20T11:21:47;9.57;;;4.82;;
30533;SDS011;17318;52.390;9.754;2022-11-20T11:27:04;8.57;;;4.38;;
30533;SDS011;17318;52.390;9.754;2022-11-20T11:29:37;9.25;;;5.00;;
30533;SDS011;17318;52.390;9.754;2022-11-20T11:32:07;10.85;;;5.35;;
30533;SDS011;17318;52.390;9.754;2022-11-20T11:34:40;11.32;;;5.28;;
30533;SDS011;17318;52.390;9.754;2022-11-20T11:37:14;17.23;;;5.80;;
30533;SDS011;17318;52.390;9.754;2022-11-20T11:39:44;11.00;;;6.25;;
30533;SDS011;17318;52.390;9.754;2022-11-20T11:42:18;12.23;;;6.40;;
30533;SDS011;17318;52.390;9.754;2022-11-20T11:44:46;10.35;;;5.90;;
30533;SDS011;17318;52.390;9.754;2022-11-20T11:58:24;10.95;;;6.57;;
30533;SDS011;17318;52.390;9.754;2022-11-20T12:04:04;17.20;;;7.65;;
30533;SDS011;17318;52.390;9.754;2022-11-20T12:06:47;15.50;;;7.28;;
30533;SDS011;17318;52.390;9.754;2022-11-20T12:09:18;12.13;;;7.03;;
30533;SDS011;17318;52.390;9.754;2022-11-20T12:11:49;17.95;;;6.85;;
30533;SDS011;17318;52.390;9.754;2022-11-20T12:14:39;13.02;;;7.05;;
30533;SDS011;17318;52.390;9.754;2022-11-20T12:17:11;13.68;;;6.95;;
30533;SDS011;17318;52.390;9.754;2022-11-20T12:19:38;14.77;;;7.18;;
30533;SDS011;17318;52.390;9.754;2022-11-20T12:30:32;20.60;;;7.22;;
30533;SDS011;17318;52.390;9.754;2022-11-20T12:43:24;15.30;;;7.13;;
30533;SDS011;17318;52.390;9.754;2022-11-20T12:49:02;17.50;;;7.95;;
30533;SDS011;17318;52.390;9.754;2022-11-20T12:54:46;19.50;;;8.27;;
30533;SDS011;17318;52.390;9.754;2022-11-20T13:00:29;13.57;;;7.38;;
30533;SDS011;17318;52.390;9.754;2022-11-20T13:05:40;12.40;;;7.18;;
30533;SDS011;17318;52.390;9.754;2022-11-20T13:08:16;12.05;;;6.63;;
30533;SDS011;17318;52.390;9.754;2022-11-20T13:10:50;13.45;;;7.60;;
30533;SDS011;17318;52.390;9.754;2022-11-20T13:18:40;11.93;;;6.85;;
30533;SDS011;17318;52.390;9.754;2022-11-20T13:21:14;12.90;;;6.70;;
30533;SDS011;17318;52.390;9.754;2022-11-20T13:23:41;11.63;;;7.00;;
30533;SDS011;17318;52.390;9.754;2022-11-20T13:26:20;15.90;;;8.75;;
30533;SDS011;17318;52.390;9.754;2022-11-20T13:28:58;15.75;;;7.78;;
30533;SDS011;17318;52.390;9.754;2022-11-20T13:31:43;16.58;;;7.90;;
30533;SDS011;17318;52.390;9.754;2022-11-20T13:34:21;13.27;;;7.13;;
30533;SDS011;17318;52.390;9.754;2022-11-20T13:36:50;13.25;;;7.10;;
30533;SDS011;17318;52.390;9.754;2022-11-20T13:39:27;17.27;;;7.82;;
30533;SDS011;17318;52.390;9.754;2022-11-20T13:41:59;14.93;;;8.05;;
30533;SDS011;17318;52.390;9.754;2022-11-20T13:44:51;14.48;;;7.63;;
30533;SDS011;17318;52.390;9.754;2022-11-20T13:47:23;13.68;;;7.43;;
30533;SDS011;17318;52.390;9.754;2022-11-20T13:49:51;15.32;;;7.38;;
30533;SDS011;17318;52.390;9.754;2022-11-20T14:00:20;20.88;;;8.93;;
30533;SDS011;17318;52.390;9.754;2022-11-20T14:03:07;15.93;;;8.70;;
30533;SDS011;17318;52.390;9.754;2022-11-20T14:05:38;17.73;;;9.40;;
30533;SDS011;17318;52.390;9.754;2022-11-20T14:08:16;13.80;;;7.70;;
30533;SDS011;17318;52.390;9.754;2022-11-20T14:10:48;18.73;;;8.13;;
30533;SDS011;17318;52.390;9.754;2022-11-20T14:13:17;16.98;;;8.13;;
30533;SDS011;17318;52.390;9.754;2022-11-20T14:15:44;17.20;;;8.70;;
30533;SDS011;17318;52.390;9.754;2022-11-20T14:18:11;18.08;;;8.23;;
30533;SDS011;17318;52.390;9.754;2022-11-20T14:20:39;14.73;;;7.85;;
30533;SDS011;17318;52.390;9.754;2022-11-20T14:23:07;15.60;;;8.30;;
30533;SDS011;17318;52.390;9.754;2022-11-20T14:25:35;15.40;;;8.15;;
30533;SDS011;17318;52.390;9.754;2022-11-20T14:28:02;16.00;;;9.05;;
30533;SDS011;17318;52.390;9.754;2022-11-20T14:30:35;17.67;;;8.40;;
30533;SDS011;17318;52.390;9.754;2022-11-20T14:33:12;17.33;;;8.52;;
30533;SDS011;17318;52.390;9.754;2022-11-20T14:35:49;16.42;;;8.20;;
30533;SDS011;17318;52.390;9.754;2022-11-20T14:38:22;18.48;;;8.30;;
30533;SDS011;17318;52.390;9.754;2022-11-20T14:40:50;19.08;;;9.13;;
30533;SDS011;17318;52.390;9.754;2022-11-20T14:43:23;18.15;;;9.38;;
30533;SDS011;17318;52.390;9.754;2022-11-20T14:46:02;15.82;;;8.32;;
30533;SDS011;17318;52.390;9.754;2022-11-20T14:48:46;22.17;;;10.07;;
30533;SDS011;17318;52.390;9.754;2022-11-20T14:51:25;19.15;;;8.40;;
30533;SDS011;17318;52.390;9.754;2022-11-20T14:56:24;16.85;;;8.43;;
30533;SDS011;17318;52.390;9.754;2022-11-20T14:58:56;20.55;;;8.85;;
30533;SDS011;17318;52.390;9.754;2022-11-20T15:01:26;18.52;;;9.57;;
30533;SDS011;17318;52.390;9.754;2022-11-20T15:04:00;24.15;;;10.82;;
30533;SDS011;17318;52.390;9.754;2022-11-20T15:06:29;17.38;;;8.98;;
30533;SDS011;17318;52.390;9.754;2022-11-20T15:08:56;18.20;;;9.52;;
30533;SDS011;17318;52.390;9.754;2022-11-20T15:11:29;20.95;;;9.95;;
30533;SDS011;17318;52.390;9.754;2022-11-20T15:13:56;23.20;;;10.05;;
30533;SDS011;17318;52.390;9.754;2022-11-20T15:16:26;21.23;;;11.27;;
30533;SDS011;17318;52.390;9.754;2022-11-20T15:18:53;18.35;;;9.98;;
30533;SDS011;17318;52.390;9.754;2022-11-20T15:21:19;16.77;;;8.95;;
30533;SDS011;17318;52.390;9.754;2022-11-20T15:23:46;21.58;;;8.55;;
30533;SDS011;17318;52.390;9.754;2022-11-20T15:26:12;17.98;;;8.43;;
30533;SDS011;17318;52.390;9.754;2022-11-20T15:28:41;19.60;;;9.20;;
30533;SDS011;17318;52.390;9.754;2022-11-20T15:31:11;24.90;;;9.60;;
30533;SDS011;17318;52.390;9.754;2022-11-20T15:33:37;17.30;;;8.75;;
30533;SDS011;17318;52.390;9.754;2022-11-20T15:36:03;18.85;;;9.52;;
30533;SDS011;17318;52.390;9.754;2022-11-20T15:38:29;21.67;;;9.30;;
30533;SDS011;17318;52.390;9.754;2022-11-20T15:40:55;17.90;;;8.25;;
30533;SDS011;17318;52.390;9.754;2022-11-20T15:43:21;17.45;;;8.80;;
30533;SDS011;17318;52.390;9.754;2022-11-20T15:45:54;12.85;;;8.00;;
30533;SDS011;17318;52.390;9.754;2022-11-20T15:48:24;15.85;;;8.07;;
30533;SDS011;17318;52.390;9.754;2022-11-20T15:50:59;17.25;;;8.93;;
30533;SDS011;17318;52.390;9.754;2022-11-20T15:53:26;16.52;;;8.80;;
30533;SDS011;17318;52.390;9.754;2022-11-20T15:55:52;21.55;;;8.77;;
30533;SDS011;17318;52.390;9.754;2022-11-20T15:58:18;18.60;;;9.02;;
30533;SDS011;17318;52.390;9.754;2022-11-20T16:00:43;18.35;;;9.00;;
30533;SDS011;17318;52.390;9.754;2022-11-20T16:03:14;21.65;;;8.95;;
30533;SDS011;17318;52.390;9.754;2022-11-20T16:05:40;19.60;;;9.75;;
30533;SDS011;17318;52.390;9.754;2022-11-20T16:08:06;16.25;;;7.90;;
30533;SDS011;17318;52.390;9.754;2022-11-20T16:10:31;19.33;;;9.27;;
30533;SDS011;17318;52.390;9.754;2022-11-20T16:12:58;21.30;;;9.23;;
30533;SDS011;17318;52.390;9.754;2022-11-20T16:15:43;21.42;;;8.70;;
30533;SDS011;17318;52.390;9.754;2022-11-20T16:18:18;16.08;;;8.68;;
30533;SDS011;17318;52.390;9.754;2022-11-20T16:20:45;17.02;;;8.18;;
30533;SDS011;17318;52.390;9.754;2022-11-20T16:25:38;18.98;;;7.78;;
30533;SDS011;17318;52.390;9.754;2022-11-20T16:28:04;15.73;;;8.15;;
30533;SDS011;17318;52.390;9.754;2022-11-20T16:30:31;16.80;;;8.43;;
30533;SDS011;17318;52.390;9.754;2022-11-20T16:32:57;19.23;;;8.93;;
30533;SDS011;17318;52.390;9.754;2022-11-20T16:37:55;15.70;;;7.93;;
30533;SDS011;17318;52.390;9.754;2022-11-20T16:40:21;17.98;;;8.60;;